Time;durP1;ratioP1;P1;durP2;ratioP2;P2;SDS_P1;SDS_P2;PMS_P1;PMS_P2;Temp;Humidity;BMP_temperature;BMP_pressure;BME280_temperature;BME280_humidity;BME280_pressure;Samples;Min_cycle;Max_cycle;Signal;HPM_P1;HPM_P2
2023/04/09 00:01:56;;;;;;;0.65;0.60;;;9.70;99.90;;;;;;5048374;28;20311;-66
2023/04/09 00:04:24;;;;;;;1.10;0.70;;;9.70;99.90;;;;;;5048552;28;20699;-67
2023/04/09 00:06:54;;;;;;;1.33;0.77;;;9.60;99.90;;;;;;5049930;28;20715;-66
2023/04/09 00:09:21;;;;;;;1.40;1.08;;;9.60;99.90;;;;;;5050373;28;20227;-67
2023/04/09 00:11:49;;;;;;;0.75;0.55;;;9.60;99.90;;;;;;5050153;28;20236;-67
2023/04/09 00:14:17;;;;;;;0.60;0.60;;;9.70;99.90;;;;;;5053948;28;20283;-66
2023/04/09 00:16:45;;;;;;;0.70;0.70;;;9.80;99.90;;;;;;5054303;28;20722;-66
2023/04/09 00:19:13;;;;;;;0.80;0.70;;;9.80;99.90;;;;;;5054258;28;20227;-66
2023/04/09 00:21:41;;;;;;;1.35;0.90;;;9.80;99.90;;;;;;5052903;28;20263;-66
2023/04/09 00:24:10;;;;;;;0.82;0.80;;;9.80;99.90;;;;;;5053538;28;20307;-66
2023/04/09 00:26:38;;;;;;;1.10;0.65;;;9.80;99.90;;;;;;5054023;28;20203;-65
2023/04/09 00:29:06;;;;;;;1.25;0.70;;;9.70;99.90;;;;;;5046575;28;20291;-65
2023/04/09 00:31:34;;;;;;;0.93;0.63;;;9.70;99.90;;;;;;5052907;28;20691;-66
2023/04/09 00:34:02;;;;;;;0.80;0.60;;;9.60;99.90;;;;;;5053608;28;20618;-65
2023/04/09 00:36:30;;;;;;;0.80;0.70;;;9.60;99.90;;;;;;5047866;28;20211;-65
2023/04/09 00:38:57;;;;;;;0.95;0.55;;;9.70;99.90;;;;;;5053686;28;20638;-65
2023/04/09 00:41:27;;;;;;;1.25;1.10;;;9.70;99.90;;;;;;5053119;28;20711;-65
2023/04/09 00:43:56;;;;;;;0.95;0.90;;;9.70;99.90;;;;;;5045131;28;20208;-65
2023/04/09 00:46:24;;;;;;;0.65;0.63;;;9.70;99.90;;;;;;5053261;28;20286;-65
2023/04/09 00:48:52;;;;;;;1.60;1.45;;;9.70;99.90;;;;;;5051124;28;20207;-66
2023/04/09 00:51:20;;;;;;;0.60;0.50;;;9.70;99.90;;;;;;5051542;28;20234;-66
2023/04/09 00:53:48;;;;;;;0.70;0.70;;;9.70;99.90;;;;;;5042999;28;20215;-66
2023/04/09 00:56:18;;;;;;;1.20;0.80;;;9.80;99.90;;;;;;5047696;28;20638;-66
2023/04/09 00:58:47;;;;;;;1.10;1.02;;;9.70;99.90;;;;;;5053060;28;20650;-66
2023/04/09 01:01:15;;;;;;;1.35;0.90;;;9.80;99.90;;;;;;5052807;28;20281;-67
2023/04/09 01:03:43;;;;;;;1.20;1.10;;;9.70;99.90;;;;;;5052407;28;20676;-66
2023/04/09 01:06:27;;;;;;;1.17;0.65;;;9.70;99.90;;;;;;5048916;28;20586;-67
2023/04/09 01:09:05;;;;;;;0.85;0.82;;;9.70;99.90;;;;;;5044547;28;20225;-67
2023/04/09 01:11:39;;;;;;;1.92;1.08;;;9.60;99.90;;;;;;5052191;28;20249;-66
2023/04/09 01:14:14;;;;;;;0.70;0.60;;;9.60;99.90;;;;;;5052523;28;20222;-66
2023/04/09 01:16:46;;;;;;;3.00;1.25;;;9.60;99.90;;;;;;5052412;28;20302;-65
2023/04/09 01:19:27;;;;;;;1.10;0.70;;;9.60;99.90;;;;;;5052308;28;20283;-66
2023/04/09 01:21:57;;;;;;;0.77;0.65;;;9.60;99.90;;;;;;5044042;28;20261;-65
2023/04/09 01:24:45;;;;;;;1.33;1.05;;;9.60;99.90;;;;;;5050529;28;20238;-66
2023/04/09 01:27:15;;;;;;;2.08;0.95;;;9.60;99.90;;;;;;5046094;28;20696;-66
2023/04/09 01:29:47;;;;;;;0.65;0.52;;;9.60;99.90;;;;;;5038492;28;20243;-65
2023/04/09 01:32:18;;;;;;;1.33;1.23;;;9.70;99.90;;;;;;5052296;28;20231;-65
2023/04/09 01:34:47;;;;;;;1.27;1.08;;;9.70;99.90;;;;;;5051849;28;20302;-66
2023/04/09 01:37:16;;;;;;;2.35;1.35;;;9.70;99.90;;;;;;5052066;28;20242;-65
2023/04/09 01:39:45;;;;;;;1.40;1.05;;;9.70;99.90;;;;;;5050365;28;20236;-65
2023/04/09 01:42:16;;;;;;;1.33;1.23;;;9.60;99.90;;;;;;5052022;28;20234;-67
2023/04/09 01:44:47;;;;;;;1.00;0.82;;;9.60;99.90;;;;;;5052242;28;20568;-66
2023/04/09 01:47:15;;;;;;;0.70;0.57;;;9.50;99.90;;;;;;5052682;28;20681;-66
2023/04/09 01:49:44;;;;;;;1.33;1.23;;;9.50;99.90;;;;;;5051550;28;20219;-66
2023/04/09 01:52:12;;;;;;;0.70;0.70;;;9.40;99.90;;;;;;5052150;28;20246;-66
2023/04/09 01:54:40;;;;;;;0.60;0.60;;;9.40;99.90;;;;;;5052294;28;20286;-66
2023/04/09 01:57:08;;;;;;;2.10;1.90;;;9.30;99.90;;;;;;5050478;28;20279;-66
2023/04/09 01:59:36;;;;;;;1.88;1.77;;;9.30;99.90;;;;;;5052433;28;20298;-65
2023/04/09 02:02:09;;;;;;;0.82;0.70;;;9.30;99.90;;;;;;5052252;28;20219;-65
2023/04/09 02:04:43;;;;;;;2.30;1.30;;;9.20;99.90;;;;;;5051849;28;20816;-65
2023/04/09 02:07:18;;;;;;;1.45;0.90;;;9.20;99.90;;;;;;5052143;28;20672;-66
2023/04/09 02:09:48;;;;;;;1.10;0.77;;;9.20;99.90;;;;;;5052707;28;20733;-66
2023/04/09 02:12:18;;;;;;;1.92;0.63;;;9.20;99.90;;;;;;5051277;28;20759;-66
2023/04/09 02:14:48;;;;;;;0.70;0.60;;;9.20;99.90;;;;;;5047569;28;20772;-65
2023/04/09 02:17:18;;;;;;;2.05;0.80;;;9.20;99.90;;;;;;5052413;28;20206;-66
2023/04/09 02:19:47;;;;;;;1.13;1.02;;;9.20;99.90;;;;;;5051865;28;20211;-65
2023/04/09 02:22:16;;;;;;;1.17;1.08;;;9.10;99.90;;;;;;5046321;28;20231;-66
2023/04/09 02:24:45;;;;;;;0.65;0.50;;;9.10;99.90;;;;;;5049112;28;20302;-66
2023/04/09 02:27:13;;;;;;;1.08;0.65;;;9.00;99.90;;;;;;5048327;28;20212;-66
2023/04/09 02:29:41;;;;;;;1.40;1.13;;;9.00;99.90;;;;;;5043847;28;20227;-65
2023/04/09 02:32:09;;;;;;;2.63;1.38;;;8.90;99.90;;;;;;5050026;28;20292;-66
2023/04/09 02:34:38;;;;;;;1.45;0.80;;;9.00;99.90;;;;;;5050740;28;20289;-65
2023/04/09 02:37:06;;;;;;;0.93;0.60;;;9.00;99.90;;;;;;5052257;28;20712;-66
2023/04/09 02:39:34;;;;;;;3.80;0.80;;;8.90;99.90;;;;;;5052056;28;20260;-66
2023/04/09 02:42:02;;;;;;;0.60;0.47;;;8.90;99.90;;;;;;5043375;28;20302;-66
2023/04/09 02:44:30;;;;;;;0.60;0.60;;;8.80;99.90;;;;;;5051105;28;20265;-66
2023/04/09 02:46:58;;;;;;;1.08;1.00;;;8.80;99.90;;;;;;5050258;28;20292;-66
2023/04/09 02:49:26;;;;;;;1.23;0.82;;;8.70;99.90;;;;;;5048449;28;20208;-66
2023/04/09 02:51:55;;;;;;;2.15;0.80;;;8.70;99.90;;;;;;5049765;28;20245;-65
2023/04/09 02:54:23;;;;;;;1.52;0.80;;;8.60;99.90;;;;;;5049245;28;20207;-66
2023/04/09 02:56:51;;;;;;;1.60;0.88;;;8.60;99.90;;;;;;5046712;28;20278;-66
2023/04/09 02:59:19;;;;;;;0.90;0.60;;;8.60;99.90;;;;;;5046559;28;20252;-66
2023/04/09 03:01:46;;;;;;;0.85;0.77;;;8.50;99.90;;;;;;5046854;28;20315;-65
2023/04/09 03:04:14;;;;;;;1.20;1.08;;;8.50;99.90;;;;;;5046141;28;20237;-65
2023/04/09 03:06:42;;;;;;;1.80;0.85;;;8.50;99.90;;;;;;5047211;28;20210;-65
2023/04/09 03:09:12;;;;;;;1.48;0.85;;;8.40;99.90;;;;;;5043865;28;20282;-65
2023/04/09 03:11:39;;;;;;;0.57;0.50;;;8.30;99.90;;;;;;5040156;28;20303;-65
2023/04/09 03:14:07;;;;;;;1.38;0.85;;;8.30;99.90;;;;;;5049942;28;20285;-65
2023/04/09 03:16:35;;;;;;;1.05;1.02;;;8.30;99.90;;;;;;5049511;28;20566;-65
2023/04/09 03:19:03;;;;;;;1.70;1.45;;;8.30;99.90;;;;;;5045681;28;20289;-66
2023/04/09 03:21:32;;;;;;;1.17;1.05;;;8.30;99.90;;;;;;5048720;28;20238;-66
2023/04/09 03:24:01;;;;;;;3.30;1.95;;;8.20;99.90;;;;;;5048368;28;20270;-66
2023/04/09 03:26:34;;;;;;;1.33;0.73;;;8.20;99.90;;;;;;5047058;28;20676;-66
2023/04/09 03:29:02;;;;;;;0.85;0.70;;;8.20;99.90;;;;;;5042232;28;20204;-66
2023/04/09 03:31:30;;;;;;;2.33;1.90;;;8.20;99.90;;;;;;5049699;28;20310;-66
2023/04/09 03:33:58;;;;;;;0.95;0.88;;;8.30;99.90;;;;;;5047393;28;20260;-66
2023/04/09 03:36:27;;;;;;;0.80;0.80;;;8.20;99.90;;;;;;5046128;28;20282;-66
2023/04/09 03:38:55;;;;;;;1.48;1.38;;;8.20;99.90;;;;;;5048926;28;20378;-66
2023/04/09 03:41:23;;;;;;;0.98;0.63;;;8.20;99.90;;;;;;5050142;28;20225;-66
2023/04/09 03:43:52;;;;;;;1.23;0.82;;;8.20;99.90;;;;;;5050149;28;20227;-66
2023/04/09 03:46:20;;;;;;;1.10;1.00;;;8.20;99.90;;;;;;5053744;28;20578;-66
2023/04/09 03:48:48;;;;;;;0.80;0.80;;;8.30;99.90;;;;;;5054094;28;20578;-66
2023/04/09 03:51:16;;;;;;;1.63;1.50;;;8.10;99.90;;;;;;5045000;28;20227;-65
2023/04/09 03:53:44;;;;;;;1.42;1.02;;;8.10;99.90;;;;;;5054379;28;20204;-65
2023/04/09 03:56:12;;;;;;;2.50;2.30;;;8.20;99.90;;;;;;5051814;28;20246;-66
2023/04/09 03:58:40;;;;;;;0.60;0.60;;;8.20;99.90;;;;;;5054105;28;20285;-65
2023/04/09 04:01:09;;;;;;;2.20;1.63;;;8.20;99.90;;;;;;5054694;28;21035;-65
2023/04/09 04:03:37;;;;;;;1.20;0.75;;;8.20;99.90;;;;;;5054168;28;20317;-65
2023/04/09 04:06:05;;;;;;;1.80;1.67;;;8.30;99.90;;;;;;5054709;28;20210;-65
2023/04/09 04:08:33;;;;;;;1.08;0.85;;;8.20;99.90;;;;;;5054790;28;20219;-65
2023/04/09 04:11:04;;;;;;;1.58;1.45;;;8.20;99.90;;;;;;5054416;28;20659;-65
2023/04/09 04:13:32;;;;;;;1.60;1.40;;;8.20;99.90;;;;;;5051672;28;20269;-66
2023/04/09 04:15:59;;;;;;;1.00;0.70;;;8.20;99.90;;;;;;5054581;28;20227;-65
2023/04/09 04:18:29;;;;;;;1.17;0.90;;;8.10;99.90;;;;;;5054034;28;20208;-66
2023/04/09 04:20:57;;;;;;;1.25;1.00;;;8.10;99.90;;;;;;5053089;28;20234;-66
2023/04/09 04:23:24;;;;;;;1.45;1.30;;;8.10;99.90;;;;;;5053827;28;20309;-66
2023/04/09 04:25:52;;;;;;;1.27;1.17;;;8.20;99.90;;;;;;5053331;28;20211;-66
2023/04/09 04:28:20;;;;;;;1.63;1.50;;;8.10;99.90;;;;;;5053795;28;20291;-66
2023/04/09 04:30:48;;;;;;;1.20;1.10;;;8.10;99.90;;;;;;5049953;28;20803;-66
2023/04/09 04:33:16;;;;;;;1.13;1.02;;;8.00;99.90;;;;;;5053513;28;20283;-66
2023/04/09 04:35:45;;;;;;;1.95;1.75;;;8.10;99.90;;;;;;5046485;28;20720;-66
2023/04/09 04:38:13;;;;;;;2.95;1.10;;;8.00;99.90;;;;;;5053081;28;20237;-66
2023/04/09 04:40:41;;;;;;;1.67;1.58;;;8.10;99.90;;;;;;5051620;28;20237;-66
2023/04/09 04:43:09;;;;;;;2.17;1.98;;;8.00;99.90;;;;;;5040215;28;20224;-66
2023/04/09 04:45:36;;;;;;;1.38;1.27;;;8.00;99.90;;;;;;5053124;28;20282;-63
2023/04/09 04:48:04;;;;;;;4.78;1.75;;;8.00;99.90;;;;;;5049576;28;20208;-65
2023/04/09 04:50:32;;;;;;;1.13;1.00;;;8.00;99.90;;;;;;5053137;28;20228;-64
2023/04/09 04:53:01;;;;;;;1.48;1.33;;;8.00;99.90;;;;;;5052959;28;20358;-65
2023/04/09 04:55:29;;;;;;;2.35;1.75;;;8.00;99.90;;;;;;5052658;28;20294;-65
2023/04/09 04:57:57;;;;;;;2.58;2.47;;;8.00;99.90;;;;;;5052348;28;20211;-64
2023/04/09 05:00:25;;;;;;;1.70;0.95;;;8.00;99.90;;;;;;5053113;28;20254;-65
2023/04/09 05:02:53;;;;;;;1.67;1.58;;;8.00;99.90;;;;;;5052951;28;20261;-65
2023/04/09 05:05:21;;;;;;;1.40;1.30;;;8.00;99.90;;;;;;5049356;28;20294;-64
2023/04/09 05:07:49;;;;;;;0.80;0.80;;;7.90;99.90;;;;;;5052430;28;20633;-64
2023/04/09 05:10:18;;;;;;;2.63;2.42;;;7.80;99.90;;;;;;5052770;28;20219;-66
2023/04/09 05:12:46;;;;;;;2.38;1.42;;;7.80;99.90;;;;;;5052349;28;20692;-68
2023/04/09 05:15:14;;;;;;;2.90;1.75;;;7.80;99.90;;;;;;5053061;28;20206;-65
2023/04/09 05:17:42;;;;;;;1.15;0.93;;;7.80;99.90;;;;;;5052759;28;20727;-67
2023/04/09 05:20:11;;;;;;;2.33;1.50;;;7.90;99.90;;;;;;5044618;28;20252;-66
2023/04/09 05:22:39;;;;;;;1.35;1.25;;;7.90;99.90;;;;;;5049422;28;20244;-66
2023/04/09 05:25:09;;;;;;;1.45;1.35;;;8.00;99.90;;;;;;5052569;28;20623;-66
2023/04/09 05:27:38;;;;;;;2.33;1.23;;;8.00;99.90;;;;;;5052697;28;20665;-66
2023/04/09 05:30:07;;;;;;;1.35;1.17;;;8.00;99.90;;;;;;5052207;28;20310;-66
2023/04/09 05:32:35;;;;;;;1.27;1.00;;;8.00;99.90;;;;;;5052697;28;20847;-66
2023/04/09 05:35:03;;;;;;;3.20;2.25;;;7.90;99.90;;;;;;5050499;28;20832;-65
2023/04/09 05:37:31;;;;;;;1.85;1.25;;;8.00;99.90;;;;;;5045116;28;20514;-66
2023/04/09 05:39:59;;;;;;;1.92;1.58;;;8.00;99.90;;;;;;5050718;28;20771;-66
2023/04/09 05:42:27;;;;;;;1.60;1.50;;;8.00;99.90;;;;;;5052605;28;20289;-67
2023/04/09 05:44:56;;;;;;;3.45;2.40;;;8.10;99.90;;;;;;5050782;28;20593;-67
2023/04/09 05:47:24;;;;;;;2.05;0.98;;;8.00;99.90;;;;;;5051774;28;20202;-67
2023/04/09 05:49:52;;;;;;;2.88;2.40;;;8.00;99.90;;;;;;5048148;28;20216;-66
2023/04/09 05:52:20;;;;;;;1.60;1.45;;;8.00;99.90;;;;;;5050006;28;20275;-65
2023/04/09 05:54:48;;;;;;;1.50;1.23;;;7.90;99.90;;;;;;5049978;28;20747;-66
2023/04/09 05:57:16;;;;;;;2.63;2.42;;;7.80;99.90;;;;;;5052231;28;20688;-65
2023/04/09 05:59:44;;;;;;;1.27;1.17;;;7.80;99.90;;;;;;5052138;28;20215;-66
2023/04/09 06:02:13;;;;;;;1.85;1.50;;;7.70;99.90;;;;;;5044451;28;20738;-66
2023/04/09 06:04:41;;;;;;;1.95;1.30;;;7.80;99.90;;;;;;5051510;28;20382;-67
2023/04/09 06:07:09;;;;;;;2.17;1.55;;;7.70;99.90;;;;;;5043800;28;20204;-66
2023/04/09 06:09:37;;;;;;;2.78;1.60;;;7.60;99.90;;;;;;5051033;28;20297;-65
2023/04/09 06:12:05;;;;;;;2.95;2.50;;;7.70;99.90;;;;;;5046928;28;20588;-66
2023/04/09 06:14:33;;;;;;;2.30;1.70;;;7.70;99.90;;;;;;5051690;28;20199;-66
2023/04/09 06:17:01;;;;;;;1.77;1.48;;;7.90;99.90;;;;;;5051584;28;20290;-66
2023/04/09 06:19:30;;;;;;;2.20;1.40;;;7.80;99.90;;;;;;5051722;28;20207;-68
2023/04/09 06:21:58;;;;;;;1.77;1.63;;;7.90;99.90;;;;;;5050745;28;20247;-65
2023/04/09 06:24:26;;;;;;;3.10;2.58;;;8.00;99.90;;;;;;5049654;28;20219;-64
2023/04/09 06:26:56;;;;;;;2.22;1.30;;;8.10;99.90;;;;;;5051461;28;20695;-66
2023/04/09 06:29:24;;;;;;;3.45;2.35;;;8.10;99.90;;;;;;5047283;28;20281;-66
2023/04/09 06:31:52;;;;;;;4.00;1.85;;;8.10;99.90;;;;;;5051115;28;20227;-66
2023/04/09 06:34:20;;;;;;;1.23;1.13;;;8.10;99.90;;;;;;5048875;28;20639;-66
2023/04/09 06:36:50;;;;;;;3.00;1.40;;;8.20;99.90;;;;;;5050517;28;20211;-66
2023/04/09 06:39:17;;;;;;;2.70;1.77;;;8.40;99.90;;;;;;5051235;28;20287;-66
2023/04/09 06:41:46;;;;;;;2.70;2.05;;;8.40;99.90;;;;;;5050767;28;20248;-65
2023/04/09 06:44:14;;;;;;;2.80;1.95;;;8.50;99.90;;;;;;5051511;28;20250;-65
2023/04/09 06:46:42;;;;;;;2.80;1.30;;;8.40;99.90;;;;;;5049026;28;20289;-64
2023/04/09 06:49:10;;;;;;;1.50;1.30;;;8.40;99.90;;;;;;5051365;28;20211;-66
2023/04/09 06:51:38;;;;;;;3.10;1.75;;;8.50;99.90;;;;;;5050735;28;20306;-66
2023/04/09 06:54:07;;;;;;;1.88;1.67;;;8.60;99.90;;;;;;5050884;28;20200;-66
2023/04/09 06:56:35;;;;;;;1.48;1.35;;;8.60;99.90;;;;;;5047748;28;20269;-66
2023/04/09 06:59:03;;;;;;;1.58;1.33;;;8.70;99.90;;;;;;5050026;28;20225;-67
2023/04/09 07:01:31;;;;;;;1.67;1.58;;;8.70;99.90;;;;;;5049662;28;20216;-67
2023/04/09 07:03:59;;;;;;;3.45;2.33;;;8.70;99.90;;;;;;5046380;28;20218;-66
2023/04/09 07:06:27;;;;;;;2.30;2.10;;;8.90;99.90;;;;;;5047863;28;20272;-66
2023/04/09 07:08:55;;;;;;;1.38;1.25;;;8.90;99.90;;;;;;5048225;28;20232;-66
2023/04/09 07:11:25;;;;;;;2.70;1.63;;;9.00;99.90;;;;;;5048324;28;20303;-66
2023/04/09 07:13:55;;;;;;;1.60;1.50;;;9.00;99.90;;;;;;5049345;28;20208;-68
2023/04/09 07:16:23;;;;;;;1.70;1.60;;;9.00;99.90;;;;;;5048197;28;20675;-66
2023/04/09 07:18:51;;;;;;;1.23;1.13;;;9.00;99.90;;;;;;5049921;28;20624;-66
2023/04/09 07:21:19;;;;;;;1.42;0.93;;;9.00;99.90;;;;;;5047375;28;20235;-65
2023/04/09 07:23:47;;;;;;;1.55;1.35;;;9.00;99.90;;;;;;5050414;28;20686;-66
2023/04/09 07:26:14;;;;;;;1.80;1.60;;;9.00;99.90;;;;;;5050082;28;20233;-66
2023/04/09 07:28:44;;;;;;;2.28;1.90;;;9.00;99.90;;;;;;5050098;28;20237;-66
2023/04/09 07:31:12;;;;;;;1.58;1.48;;;9.10;99.90;;;;;;5049693;28;20216;-66
2023/04/09 07:33:40;;;;;;;3.38;2.40;;;9.20;99.90;;;;;;5050400;28;20211;-66
2023/04/09 07:36:08;;;;;;;1.55;1.45;;;9.40;99.90;;;;;;5049611;28;20279;-67
2023/04/09 07:38:36;;;;;;;1.75;1.65;;;9.60;99.90;;;;;;5047669;28;20879;-66
2023/04/09 07:41:04;;;;;;;3.72;2.97;;;9.60;99.90;;;;;;5050001;28;20302;-66
2023/04/09 07:43:32;;;;;;;1.60;1.50;;;9.60;99.90;;;;;;5050263;28;20287;-66
2023/04/09 07:46:02;;;;;;;2.03;1.60;;;9.70;99.90;;;;;;5049123;28;20751;-66
2023/04/09 07:48:29;;;;;;;2.83;2.20;;;9.70;99.90;;;;;;5050284;28;20214;-65
2023/04/09 07:50:58;;;;;;;1.00;0.90;;;9.80;99.90;;;;;;5049677;28;20250;-65
2023/04/09 07:53:25;;;;;;;2.55;1.80;;;9.90;99.90;;;;;;5048753;28;20204;-66
2023/04/09 07:55:53;;;;;;;1.45;1.35;;;10.10;99.90;;;;;;5047661;28;20230;-66
2023/04/09 07:58:21;;;;;;;1.63;1.50;;;10.20;99.90;;;;;;5049013;28;20214;-65
2023/04/09 08:00:49;;;;;;;2.70;1.85;;;10.30;99.90;;;;;;5047958;28;20635;-66
2023/04/09 08:03:18;;;;;;;0.80;0.70;;;10.40;99.90;;;;;;5049089;28;20211;-66
2023/04/09 08:05:47;;;;;;;2.17;1.98;;;10.50;99.90;;;;;;5047669;28;20212;-65
2023/04/09 08:08:14;;;;;;;1.65;1.55;;;10.60;99.90;;;;;;5047581;28;20203;-65
2023/04/09 08:10:42;;;;;;;1.00;0.90;;;10.70;99.90;;;;;;5046331;28;20216;-68
2023/04/09 08:13:10;;;;;;;2.72;2.53;;;10.70;99.90;;;;;;5049057;28;20211;-67
2023/04/09 08:15:38;;;;;;;2.60;1.88;;;10.70;99.90;;;;;;5049150;28;20215;-65
2023/04/09 08:18:07;;;;;;;0.60;0.43;;;10.70;99.90;;;;;;5048690;28;20261;-66
2023/04/09 08:20:36;;;;;;;1.67;0.60;;;10.60;99.90;;;;;;5047768;28;20239;-66
2023/04/09 08:23:04;;;;;;;2.55;2.40;;;10.60;99.90;;;;;;5045688;28;20211;-66
2023/04/09 08:25:32;;;;;;;1.17;1.17;;;10.60;99.90;;;;;;5045331;28;20299;-65
2023/04/09 08:28:00;;;;;;;1.70;1.50;;;10.60;99.90;;;;;;5045160;28;20684;-66
2023/04/09 08:30:28;;;;;;;1.90;1.45;;;10.70;99.90;;;;;;5044497;28;20226;-65
2023/04/09 08:32:56;;;;;;;1.00;0.90;;;10.80;99.90;;;;;;5049160;28;20291;-66
2023/04/09 08:35:24;;;;;;;2.10;1.10;;;11.00;99.90;;;;;;5052492;28;20208;-66
2023/04/09 08:37:53;;;;;;;1.42;1.33;;;11.20;99.90;;;;;;5050418;28;20256;-66
2023/04/09 08:40:21;;;;;;;0.98;0.88;;;11.40;99.90;;;;;;5046551;28;20771;-65
2023/04/09 08:42:54;;;;;;;1.75;1.65;;;11.50;99.90;;;;;;5051132;28;20203;-66
2023/04/09 08:45:22;;;;;;;2.17;1.98;;;11.70;99.90;;;;;;5048487;28;20212;-65
2023/04/09 08:47:51;;;;;;;1.58;0.80;;;11.90;99.90;;;;;;5047951;28;20206;-67
2023/04/09 08:50:26;;;;;;;1.23;1.15;;;12.20;99.90;;;;;;5050319;28;20292;-67
2023/04/09 08:52:58;;;;;;;1.50;1.00;;;12.60;99.90;;;;;;5048719;28;20218;-67
2023/04/09 08:55:26;;;;;;;1.65;1.25;;;12.70;99.90;;;;;;5051165;28;20227;-66
2023/04/09 08:57:55;;;;;;;2.00;1.80;;;12.90;99.90;;;;;;5050638;28;20204;-67
2023/04/09 09:00:23;;;;;;;0.57;0.45;;;12.90;99.90;;;;;;5049347;28;20309;-67
2023/04/09 09:03:04;;;;;;;1.67;1.58;;;12.80;99.90;;;;;;5049239;28;20788;-66
2023/04/09 09:05:37;;;;;;;2.92;1.92;;;13.00;99.90;;;;;;5048729;28;20250;-66
2023/04/09 09:08:07;;;;;;;1.90;0.82;;;13.30;99.90;;;;;;5048530;28;20208;-66
2023/04/09 09:10:40;;;;;;;0.90;0.85;;;13.50;99.90;;;;;;5050799;28;20251;-66
2023/04/09 09:13:21;;;;;;;1.33;1.23;;;13.70;99.90;;;;;;5049717;28;20295;-67
2023/04/09 09:15:53;;;;;;;2.50;1.85;;;13.90;99.90;;;;;;5047481;28;20681;-66
2023/04/09 09:18:36;;;;;;;2.63;1.45;;;14.10;99.90;;;;;;5049918;28;20630;-66
2023/04/09 09:21:10;;;;;;;1.23;1.13;;;14.30;99.90;;;;;;5048242;28;20309;-66
2023/04/09 09:23:41;;;;;;;1.13;0.90;;;14.40;99.90;;;;;;5049887;28;20282;-66
2023/04/09 09:26:13;;;;;;;1.77;1.67;;;14.70;99.90;;;;;;5048964;28;20294;-67
2023/04/09 09:28:45;;;;;;;1.25;1.15;;;14.80;99.90;;;;;;5052003;28;20299;-67
2023/04/09 09:31:13;;;;;;;1.08;0.98;;;14.70;99.90;;;;;;5044920;28;20311;-66
2023/04/09 09:33:42;;;;;;;0.90;0.80;;;15.00;99.90;;;;;;5052676;28;20587;-67
2023/04/09 09:36:10;;;;;;;0.80;0.50;;;15.10;99.90;;;;;;5049833;28;20235;-67
2023/04/09 09:39:08;;;;;;;0.95;0.82;;;15.20;99.90;;;;;;5052719;28;20211;-67
2023/04/09 09:41:36;;;;;;;1.48;1.38;;;15.20;99.90;;;;;;5042061;28;20247;-66
2023/04/09 09:44:06;;;;;;;1.75;1.65;;;15.40;99.90;;;;;;5054486;28;20290;-67
2023/04/09 09:46:35;;;;;;;1.30;1.20;;;15.70;99.90;;;;;;5053925;28;20252;-68
2023/04/09 09:49:04;;;;;;;2.35;2.10;;;15.90;99.90;;;;;;5054313;28;20571;-67
2023/04/09 09:51:35;;;;;;;1.42;1.35;;;16.30;99.90;;;;;;5055358;28;20725;-69
2023/04/09 09:54:08;;;;;;;0.95;0.88;;;16.30;99.90;;;;;;5049595;28;20207;-67
2023/04/09 09:56:39;;;;;;;1.38;0.77;;;16.20;99.90;;;;;;5053823;28;20710;-66
2023/04/09 09:59:12;;;;;;;0.77;0.70;;;15.90;99.90;;;;;;5053617;28;20302;-66
2023/04/09 10:01:40;;;;;;;1.70;1.60;;;15.90;99.90;;;;;;5052523;28;20234;-67
2023/04/09 10:04:13;;;;;;;2.80;1.88;;;15.70;99.90;;;;;;5048715;28;20196;-67
2023/04/09 10:06:44;;;;;;;1.02;0.90;;;15.90;99.90;;;;;;5049753;28;20231;-67
2023/04/09 10:09:13;;;;;;;1.17;1.08;;;15.90;99.90;;;;;;5050435;28;20265;-66
2023/04/09 10:11:44;;;;;;;1.60;1.48;;;15.80;99.90;;;;;;5049723;28;20231;-67
2023/04/09 10:14:13;;;;;;;1.45;1.35;;;15.70;99.90;;;;;;5049905;28;20204;-67
2023/04/09 10:16:41;;;;;;;0.93;0.93;;;15.70;99.90;;;;;;5051002;28;20572;-67
2023/04/09 10:19:12;;;;;;;1.60;1.50;;;16.10;99.90;;;;;;5052247;28;20668;-67
2023/04/09 10:21:47;;;;;;;0.70;0.70;;;16.40;99.90;;;;;;5053377;28;20302;-67
2023/04/09 10:24:17;;;;;;;1.08;0.98;;;16.70;99.90;;;;;;5053634;28;20257;-67
2023/04/09 10:26:45;;;;;;;2.83;1.27;;;17.20;99.90;;;;;;5053812;28;20247;-67
2023/04/09 10:29:15;;;;;;;2.08;1.88;;;17.40;99.90;;;;;;5053136;28;20217;-67
2023/04/09 10:31:48;;;;;;;1.17;0.98;;;17.60;99.90;;;;;;5051271;28;20223;-66
2023/04/09 10:34:17;;;;;;;1.05;0.80;;;17.80;99.90;;;;;;5051037;28;20614;-65
2023/04/09 10:36:50;;;;;;;0.68;0.68;;;17.60;99.90;;;;;;5049439;28;20258;-66
2023/04/09 10:39:19;;;;;;;0.85;0.77;;;17.40;99.90;;;;;;5050669;28;20211;-65
2023/04/09 10:41:49;;;;;;;1.00;0.90;;;17.00;99.90;;;;;;5050635;28;20226;-65
2023/04/09 10:44:21;;;;;;;1.23;1.13;;;16.70;99.90;;;;;;5050529;28;20213;-66
2023/04/09 10:46:49;;;;;;;1.00;0.90;;;16.30;99.90;;;;;;5050675;28;20251;-66
2023/04/09 10:49:19;;;;;;;1.30;1.20;;;16.00;99.90;;;;;;5050132;28;20654;-66
2023/04/09 10:52:01;;;;;;;1.90;0.77;;;16.00;99.90;;;;;;5050599;28;20223;-66
2023/04/09 10:54:46;;;;;;;0.82;0.60;;;16.20;99.90;;;;;;5050107;28;20203;-66
2023/04/09 10:57:20;;;;;;;1.40;1.30;;;16.00;99.90;;;;;;5050132;28;20231;-66
2023/04/09 10:59:50;;;;;;;0.82;0.73;;;15.80;99.90;;;;;;5050556;28;20209;-66
2023/04/09 11:02:47;;;;;;;1.40;1.30;;;15.70;99.90;;;;;;5050300;28;20302;-66
2023/04/09 11:05:43;;;;;;;1.13;0.93;;;15.50;99.90;;;;;;5050549;28;20767;-66
2023/04/09 11:08:12;;;;;;;0.82;0.70;;;15.30;99.90;;;;;;5015608;28;20395;-66
2023/04/09 11:10:43;;;;;;;1.13;1.13;;;15.30;99.90;;;;;;5050450;28;20319;-66
2023/04/09 11:13:12;;;;;;;1.13;1.02;;;15.30;99.90;;;;;;5049754;28;20230;-65
2023/04/09 11:15:40;;;;;;;1.65;1.33;;;15.40;99.90;;;;;;5050456;28;20212;-66
2023/04/09 11:18:09;;;;;;;0.82;0.82;;;15.50;99.90;;;;;;5042001;28;20204;-66
2023/04/09 11:20:38;;;;;;;0.60;0.50;;;15.80;99.90;;;;;;5049971;28;20243;-66
2023/04/09 11:23:07;;;;;;;0.93;0.68;;;16.00;99.90;;;;;;5050043;28;20294;-66
2023/04/09 11:25:35;;;;;;;0.75;0.70;;;16.10;99.90;;;;;;5050019;28;20289;-65
2023/04/09 11:28:04;;;;;;;0.70;0.70;;;15.60;99.90;;;;;;5050136;28;20390;-66
2023/04/09 11:30:34;;;;;;;0.75;0.50;;;15.20;99.90;;;;;;5049247;28;20230;-65
2023/04/09 11:33:02;;;;;;;0.65;0.60;;;15.10;99.90;;;;;;5041788;28;20204;-66
2023/04/09 11:35:30;;;;;;;1.10;1.00;;;15.10;99.90;;;;;;5048339;28;20236;-66
2023/04/09 11:37:58;;;;;;;1.60;1.40;;;15.00;99.90;;;;;;5050067;28;20238;-65
2023/04/09 11:40:27;;;;;;;0.95;0.95;;;14.80;99.90;;;;;;5047179;28;20315;-65
2023/04/09 11:42:56;;;;;;;0.80;0.70;;;14.70;99.90;;;;;;5045342;28;20207;-65
2023/04/09 11:45:28;;;;;;;1.20;1.08;;;14.60;99.90;;;;;;5049553;28;20226;-65
2023/04/09 11:47:56;;;;;;;0.82;0.73;;;14.60;99.90;;;;;;5049987;28;20227;-66
2023/04/09 11:50:25;;;;;;;1.13;1.02;;;14.50;99.90;;;;;;5049969;28;20232;-65
2023/04/09 11:52:52;;;;;;;1.80;1.70;;;14.50;99.90;;;;;;5049620;28;20298;-66
2023/04/09 11:55:24;;;;;;;0.60;0.57;;;14.50;99.90;;;;;;5049790;28;20203;-66
2023/04/09 11:57:54;;;;;;;2.67;2.45;;;14.60;99.90;;;;;;5049694;28;20204;-65
2023/04/09 12:00:23;;;;;;;0.70;0.57;;;14.60;99.90;;;;;;5041680;28;20310;-66
2023/04/09 12:03:01;;;;;;;1.00;0.80;;;14.70;99.90;;;;;;5043518;28;20291;-66
2023/04/09 12:05:30;;;;;;;0.80;0.80;;;14.90;99.90;;;;;;5047581;28;20211;-65
2023/04/09 12:08:00;;;;;;;0.80;0.70;;;14.80;99.90;;;;;;5052131;28;20295;-66
2023/04/09 12:10:29;;;;;;;0.80;0.70;;;14.80;99.90;;;;;;5053174;28;20215;-65
2023/04/09 12:13:02;;;;;;;0.60;0.50;;;14.90;99.90;;;;;;5053905;28;20311;-66
2023/04/09 12:15:32;;;;;;;2.08;1.50;;;14.80;99.90;;;;;;5053803;28;20208;-65
2023/04/09 12:18:02;;;;;;;0.93;0.90;;;14.60;99.90;;;;;;5053639;28;20239;-66
2023/04/09 12:20:33;;;;;;;0.77;0.70;;;14.60;99.90;;;;;;5053200;28;20235;-65
2023/04/09 12:23:03;;;;;;;1.10;1.00;;;14.80;99.90;;;;;;5053585;28;20677;-66
2023/04/09 12:25:31;;;;;;;1.30;0.88;;;14.70;99.90;;;;;;5169371;22;20258;-71
2023/04/09 12:27:59;;;;;;;1.10;0.77;;;14.60;99.90;;;;;;5061851;28;20758;-71
2023/04/09 12:30:27;;;;;;;1.52;1.42;;;14.50;99.90;;;;;;5053950;28;20213;-71
2023/04/09 12:32:55;;;;;;;1.25;0.60;;;14.50;99.90;;;;;;5053373;28;20245;-71
2023/04/09 12:35:25;;;;;;;0.70;0.65;;;14.70;99.90;;;;;;5053168;28;20321;-71
2023/04/09 12:37:53;;;;;;;0.60;0.50;;;15.00;99.90;;;;;;5033468;28;20205;-71
2023/04/09 12:40:22;;;;;;;1.38;1.27;;;15.30;99.90;;;;;;5051713;28;20640;-71
2023/04/09 12:42:50;;;;;;;2.05;1.63;;;15.50;99.20;;;;;;5052528;28;20249;-71
2023/04/09 12:45:19;;;;;;;0.93;0.75;;;15.40;99.60;;;;;;5053188;28;20231;-71
2023/04/09 12:47:47;;;;;;;0.60;0.40;;;15.10;99.60;;;;;;5053061;28;20247;-71
2023/04/09 12:50:16;;;;;;;0.80;0.80;;;15.20;99.50;;;;;;5053060;28;20208;-71
2023/04/09 12:52:46;;;;;;;0.82;0.82;;;15.30;98.80;;;;;;5052998;28;20216;-71
2023/04/09 12:55:14;;;;;;;0.70;0.50;;;15.00;98.60;;;;;;5053130;28;20764;-70
2023/04/09 12:57:45;;;;;;;0.77;0.63;;;14.80;99.30;;;;;;5046498;28;20304;-71
2023/04/09 13:00:14;;;;;;;0.93;0.63;;;14.70;99.00;;;;;;5042126;28;20227;-71
2023/04/09 13:02:42;;;;;;;0.77;0.63;;;14.70;99.30;;;;;;5052812;28;20231;-72
2023/04/09 13:05:11;;;;;;;0.98;0.80;;;14.80;99.60;;;;;;5054674;28;20196;-71